Terminal Aerodrome Forecast
Issued by NWS Jacksonville, FL

Home | Current Version | Previous Version | Text Only | Print | Product List | Glossary On
Versions: 1 2 3 4 5 6 7 8 9 10 11 12 13 14 15 16 17 18 19 20
000
FTUS42 KJAX 272003 AAA
TAFGNV
TAF AMD
KGNV 272003Z 2720/2818 27014G24KT P6SM SCT050
     FM272130 30014G22KT P6SM SCT050
     FM272300 31008KT P6SM FEW050
     FM280400 31003KT P6SM SKC
     FM281400 36008KT P6SM SKC=

USA.gov is the U.S. government's official web portal to all federal, state and local government web resources and services.